Phuket, Thailand

4:08 AM ICT on September 27, 2016 (GMT +0700)
Phuket International | | Change Station

Elev 30 ft 8.11 °N, 98.32 °E | Updated 8 minutes ago

Mostly Cloudy
Mostly Cloudy
77 °F
Feels Like 77 °F
N
2
Wind Variable Wind from Variable

Today
High -- | Low -- °F
--% Chance of Precip.
Yesterday
High -- | Low -- °F
Precip. -- in
Pressure 29.83 in
Visibility 4.3 miles
Clouds Few 1800 ft
Scattered Clouds 2000 ft
Mostly Cloudy 10000 ft
Dew Point 73 °F
Humidity 89%
Rainfall 0.00 in
Snow Depth Not available.
6:15 AM 6:19 PM
Waning Crescent, 16% visible
METAR VTSP 262100Z VRB02KT 7000 FEW018 SCT020 BKN100 25/23 Q1010 NOSIG
Pressure 29.83 in
Visibility 4.3 miles
Clouds Few 1800 ft
Scattered Clouds 2000 ft
Mostly Cloudy 10000 ft
Dew Point 73 °F
Humidity 89%
Rainfall 0.00 in
Snow Depth Not available.
6:15 AM 6:19 PM
Waning Crescent, 16% visible
METAR VTSP 262100Z VRB02KT 7000 FEW018 SCT020 BKN100 25/23 Q1010 NOSIG

10-Day Weather Forecast

No radar image for this location.
×

Almanac

Astronomy

Sep. 27, 2016 Rise Set
Actual Time
Civil Twilight
Nautical Twilight
Astronomical Twilight
Moon
Length of Visible Light
Length of Day
Tomorrow will be .
, % of the Moon is Illuminated

Today's Extremes

Country Highs Country Lows

Community

WunderPhotos

Upload Photos

1,941,968 photos uploaded!

WunderBlog® & News

Nearby

Air Quality

  Air Quality AQ Index Pollutant
Not available.

Snow Depth

Station Depth Elevation

Earthquake Activity

City Distance Mag. Time & Date
Minimum magnitude displayed is 2.5.

Coastal Water Temperatures

Place Temperature

Stations

Nearby Weather Stations

Station Location Temp. Windchill Dew Point Humidity Wind Precip. Elev Updated Type